sensor_id;sensor_type;location;lat;lon;timestamp;P1;durP1;ratioP1;P2;durP2;ratioP2
39674;SDS011;27790;50.840;4.386;2024-03-08T00:00:34;27.52;;;13.60;;
39674;SDS011;27790;50.840;4.386;2024-03-08T00:02:59;27.80;;;12.25;;
39674;SDS011;27790;50.840;4.386;2024-03-08T00:05:29;25.17;;;13.02;;
39674;SDS011;27790;50.840;4.386;2024-03-08T00:07:55;23.23;;;12.52;;
39674;SDS011;27790;50.840;4.386;2024-03-08T00:10:20;24.88;;;12.93;;
39674;SDS011;27790;50.840;4.386;2024-03-08T00:12:46;34.47;;;14.50;;
39674;SDS011;27790;50.840;4.386;2024-03-08T00:15:13;26.05;;;12.80;;
39674;SDS011;27790;50.840;4.386;2024-03-08T00:17:40;25.02;;;11.90;;
39674;SDS011;27790;50.840;4.386;2024-03-08T00:20:06;26.00;;;13.32;;
39674;SDS011;27790;50.840;4.386;2024-03-08T00:22:35;23.23;;;12.05;;
39674;SDS011;27790;50.840;4.386;2024-03-08T00:25:02;25.02;;;13.35;;
39674;SDS011;27790;50.840;4.386;2024-03-08T00:27:28;26.65;;;12.90;;
39674;SDS011;27790;50.840;4.386;2024-03-08T00:29:55;26.00;;;13.10;;
39674;SDS011;27790;50.840;4.386;2024-03-08T00:32:21;25.75;;;12.50;;
39674;SDS011;27790;50.840;4.386;2024-03-08T00:34:49;30.08;;;13.70;;
39674;SDS011;27790;50.840;4.386;2024-03-08T00:37:16;27.15;;;13.73;;
39674;SDS011;27790;50.840;4.386;2024-03-08T00:39:42;20.52;;;11.68;;
39674;SDS011;27790;50.840;4.386;2024-03-08T00:42:08;25.23;;;13.07;;
39674;SDS011;27790;50.840;4.386;2024-03-08T00:44:33;28.52;;;13.60;;
39674;SDS011;27790;50.840;4.386;2024-03-08T00:46:59;23.80;;;13.05;;
39674;SDS011;27790;50.840;4.386;2024-03-08T00:49:25;24.88;;;12.32;;
39674;SDS011;27790;50.840;4.386;2024-03-08T00:51:50;25.58;;;12.93;;
39674;SDS011;27790;50.840;4.386;2024-03-08T00:54:16;31.08;;;13.52;;
39674;SDS011;27790;50.840;4.386;2024-03-08T00:56:42;28.88;;;13.43;;
39674;SDS011;27790;50.840;4.386;2024-03-08T00:59:07;26.65;;;13.93;;
39674;SDS011;27790;50.840;4.386;2024-03-08T01:01:33;25.88;;;14.10;;
39674;SDS011;27790;50.840;4.386;2024-03-08T01:03:59;29.15;;;13.90;;
39674;SDS011;27790;50.840;4.386;2024-03-08T01:06:24;29.77;;;15.98;;
39674;SDS011;27790;50.840;4.386;2024-03-08T01:08:50;24.98;;;13.88;;
39674;SDS011;27790;50.840;4.386;2024-03-08T01:11:17;24.98;;;13.02;;
39674;SDS011;27790;50.840;4.386;2024-03-08T01:13:43;26.42;;;12.98;;
39674;SDS011;27790;50.840;4.386;2024-03-08T01:16:08;28.70;;;13.27;;
39674;SDS011;27790;50.840;4.386;2024-03-08T01:18:35;25.05;;;13.10;;
39674;SDS011;27790;50.840;4.386;2024-03-08T01:21:00;29.45;;;13.98;;
39674;SDS011;27790;50.840;4.386;2024-03-08T01:23:26;28.35;;;13.77;;
39674;SDS011;27790;50.840;4.386;2024-03-08T01:25:52;25.05;;;13.43;;
39674;SDS011;27790;50.840;4.386;2024-03-08T01:28:22;29.55;;;14.23;;
39674;SDS011;27790;50.840;4.386;2024-03-08T01:30:49;29.85;;;14.57;;
39674;SDS011;27790;50.840;4.386;2024-03-08T01:33:20;26.00;;;12.60;;
39674;SDS011;27790;50.840;4.386;2024-03-08T01:35:50;27.23;;;13.10;;
39674;SDS011;27790;50.840;4.386;2024-03-08T01:38:19;29.02;;;14.75;;
39674;SDS011;27790;50.840;4.386;2024-03-08T01:40:48;26.50;;;13.90;;
39674;SDS011;27790;50.840;4.386;2024-03-08T01:43:21;32.88;;;15.82;;
39674;SDS011;27790;50.840;4.386;2024-03-08T01:45:50;27.27;;;15.15;;
39674;SDS011;27790;50.840;4.386;2024-03-08T01:48:16;22.35;;;13.38;;
39674;SDS011;27790;50.840;4.386;2024-03-08T01:50:43;25.85;;;14.55;;
39674;SDS011;27790;50.840;4.386;2024-03-08T01:53:09;28.00;;;14.88;;
39674;SDS011;27790;50.840;4.386;2024-03-08T01:55:37;26.40;;;16.13;;
39674;SDS011;27790;50.840;4.386;2024-03-08T01:58:04;27.80;;;14.68;;
39674;SDS011;27790;50.840;4.386;2024-03-08T02:00:31;30.02;;;13.77;;
39674;SDS011;27790;50.840;4.386;2024-03-08T02:02:58;28.27;;;15.23;;
39674;SDS011;27790;50.840;4.386;2024-03-08T02:05:23;31.52;;;14.75;;
39674;SDS011;27790;50.840;4.386;2024-03-08T02:07:49;25.75;;;14.18;;
39674;SDS011;27790;50.840;4.386;2024-03-08T02:10:15;30.75;;;14.95;;
39674;SDS011;27790;50.840;4.386;2024-03-08T02:12:41;27.60;;;15.82;;
39674;SDS011;27790;50.840;4.386;2024-03-08T02:15:07;29.17;;;15.43;;
39674;SDS011;27790;50.840;4.386;2024-03-08T02:17:33;27.00;;;15.35;;
39674;SDS011;27790;50.840;4.386;2024-03-08T02:19:59;31.38;;;15.68;;
39674;SDS011;27790;50.840;4.386;2024-03-08T02:22:26;27.45;;;15.65;;
39674;SDS011;27790;50.840;4.386;2024-03-08T02:24:57;31.52;;;15.70;;
39674;SDS011;27790;50.840;4.386;2024-03-08T02:27:26;29.55;;;14.60;;
39674;SDS011;27790;50.840;4.386;2024-03-08T02:29:54;31.55;;;16.05;;
39674;SDS011;27790;50.840;4.386;2024-03-08T02:32:21;29.33;;;16.23;;
39674;SDS011;27790;50.840;4.386;2024-03-08T02:34:47;25.77;;;14.35;;
39674;SDS011;27790;50.840;4.386;2024-03-08T02:37:14;32.85;;;15.90;;
39674;SDS011;27790;50.840;4.386;2024-03-08T02:39:39;28.90;;;15.23;;
39674;SDS011;27790;50.840;4.386;2024-03-08T02:42:06;30.48;;;16.45;;
39674;SDS011;27790;50.840;4.386;2024-03-08T02:44:32;28.40;;;15.77;;
39674;SDS011;27790;50.840;4.386;2024-03-08T02:46:58;23.67;;;16.02;;
39674;SDS011;27790;50.840;4.386;2024-03-08T02:49:24;28.45;;;16.08;;
39674;SDS011;27790;50.840;4.386;2024-03-08T02:51:51;32.33;;;17.50;;
39674;SDS011;27790;50.840;4.386;2024-03-08T02:54:17;31.35;;;14.60;;
39674;SDS011;27790;50.840;4.386;2024-03-08T02:56:44;28.50;;;16.60;;
39674;SDS011;27790;50.840;4.386;2024-03-08T02:59:11;31.15;;;15.18;;
39674;SDS011;27790;50.840;4.386;2024-03-08T03:01:42;25.77;;;14.57;;
39674;SDS011;27790;50.840;4.386;2024-03-08T03:04:08;27.42;;;17.52;;
39674;SDS011;27790;50.840;4.386;2024-03-08T03:06:34;29.15;;;16.65;;
39674;SDS011;27790;50.840;4.386;2024-03-08T03:09:00;30.30;;;16.88;;
39674;SDS011;27790;50.840;4.386;2024-03-08T03:11:26;29.25;;;15.52;;
39674;SDS011;27790;50.840;4.386;2024-03-08T03:13:52;29.70;;;17.75;;
39674;SDS011;27790;50.840;4.386;2024-03-08T03:16:18;26.27;;;16.63;;
39674;SDS011;27790;50.840;4.386;2024-03-08T03:18:46;33.65;;;17.05;;
39674;SDS011;27790;50.840;4.386;2024-03-08T03:21:12;31.85;;;18.63;;
39674;SDS011;27790;50.840;4.386;2024-03-08T03:23:39;30.17;;;17.63;;
39674;SDS011;27790;50.840;4.386;2024-03-08T03:26:05;30.95;;;17.25;;
39674;SDS011;27790;50.840;4.386;2024-03-08T03:28:32;29.20;;;15.98;;
39674;SDS011;27790;50.840;4.386;2024-03-08T03:30:58;30.00;;;17.55;;
39674;SDS011;27790;50.840;4.386;2024-03-08T03:33:24;30.33;;;17.55;;
39674;SDS011;27790;50.840;4.386;2024-03-08T03:35:50;25.45;;;16.15;;
39674;SDS011;27790;50.840;4.386;2024-03-08T03:38:17;30.67;;;18.35;;
39674;SDS011;27790;50.840;4.386;2024-03-08T03:40:44;29.35;;;18.20;;
39674;SDS011;27790;50.840;4.386;2024-03-08T03:43:11;32.88;;;17.33;;
39674;SDS011;27790;50.840;4.386;2024-03-08T03:45:36;30.88;;;18.20;;
39674;SDS011;27790;50.840;4.386;2024-03-08T03:48:06;29.60;;;17.23;;
39674;SDS011;27790;50.840;4.386;2024-03-08T03:50:34;30.40;;;16.85;;
39674;SDS011;27790;50.840;4.386;2024-03-08T03:53:00;32.78;;;18.75;;
39674;SDS011;27790;50.840;4.386;2024-03-08T03:55:25;29.45;;;17.10;;
39674;SDS011;27790;50.840;4.386;2024-03-08T03:57:52;34.88;;;17.65;;
39674;SDS011;27790;50.840;4.386;2024-03-08T04:00:17;33.25;;;17.77;;
39674;SDS011;27790;50.840;4.386;2024-03-08T04:02:43;29.80;;;17.20;;
39674;SDS011;27790;50.840;4.386;2024-03-08T04:05:10;30.13;;;17.55;;
39674;SDS011;27790;50.840;4.386;2024-03-08T04:07:36;28.23;;;16.77;;
39674;SDS011;27790;50.840;4.386;2024-03-08T04:10:03;34.90;;;18.38;;
39674;SDS011;27790;50.840;4.386;2024-03-08T04:12:31;30.30;;;17.70;;
39674;SDS011;27790;50.840;4.386;2024-03-08T04:14:57;30.58;;;17.42;;
39674;SDS011;27790;50.840;4.386;2024-03-08T04:17:22;28.10;;;17.60;;
39674;SDS011;27790;50.840;4.386;2024-03-08T04:19:51;32.88;;;18.58;;
39674;SDS011;27790;50.840;4.386;2024-03-08T04:22:17;26.50;;;16.10;;
39674;SDS011;27790;50.840;4.386;2024-03-08T04:24:43;33.55;;;17.75;;
39674;SDS011;27790;50.840;4.386;2024-03-08T04:27:09;31.13;;;17.50;;
39674;SDS011;27790;50.840;4.386;2024-03-08T04:29:35;27.60;;;15.98;;
39674;SDS011;27790;50.840;4.386;2024-03-08T04:32:03;30.42;;;17.10;;
39674;SDS011;27790;50.840;4.386;2024-03-08T04:34:29;32.72;;;18.30;;
39674;SDS011;27790;50.840;4.386;2024-03-08T04:36:59;32.10;;;17.95;;
39674;SDS011;27790;50.840;4.386;2024-03-08T04:39:24;35.38;;;19.75;;
39674;SDS011;27790;50.840;4.386;2024-03-08T04:41:53;29.00;;;17.38;;
39674;SDS011;27790;50.840;4.386;2024-03-08T04:44:20;35.83;;;18.27;;
39674;SDS011;27790;50.840;4.386;2024-03-08T04:46:45;33.75;;;18.15;;
39674;SDS011;27790;50.840;4.386;2024-03-08T04:49:11;32.92;;;19.02;;
39674;SDS011;27790;50.840;4.386;2024-03-08T04:51:38;31.58;;;16.52;;
39674;SDS011;27790;50.840;4.386;2024-03-08T04:54:03;37.28;;;18.15;;
39674;SDS011;27790;50.840;4.386;2024-03-08T04:56:30;30.23;;;17.35;;
39674;SDS011;27790;50.840;4.386;2024-03-08T04:58:55;28.75;;;17.70;;
39674;SDS011;27790;50.840;4.386;2024-03-08T05:01:21;30.55;;;18.00;;
39674;SDS011;27790;50.840;4.386;2024-03-08T05:03:47;33.17;;;16.13;;
39674;SDS011;27790;50.840;4.386;2024-03-08T05:06:15;32.08;;;17.63;;
39674;SDS011;27790;50.840;4.386;2024-03-08T05:08:41;29.38;;;18.80;;
39674;SDS011;27790;50.840;4.386;2024-03-08T05:11:06;30.17;;;18.27;;
39674;SDS011;27790;50.840;4.386;2024-03-08T05:13:32;32.33;;;17.92;;
39674;SDS011;27790;50.840;4.386;2024-03-08T05:15:59;33.20;;;18.67;;
39674;SDS011;27790;50.840;4.386;2024-03-08T05:18:25;26.38;;;16.10;;
39674;SDS011;27790;50.840;4.386;2024-03-08T05:20:53;34.15;;;19.40;;
39674;SDS011;27790;50.840;4.386;2024-03-08T05:23:18;36.45;;;18.75;;
39674;SDS011;27790;50.840;4.386;2024-03-08T05:25:44;28.23;;;17.90;;
39674;SDS011;27790;50.840;4.386;2024-03-08T05:28:12;34.72;;;18.95;;
39674;SDS011;27790;50.840;4.386;2024-03-08T05:30:38;31.45;;;17.13;;
39674;SDS011;27790;50.840;4.386;2024-03-08T05:33:04;30.02;;;18.15;;
39674;SDS011;27790;50.840;4.386;2024-03-08T05:35:32;28.48;;;17.13;;
39674;SDS011;27790;50.840;4.386;2024-03-08T05:37:58;30.13;;;17.63;;
39674;SDS011;27790;50.840;4.386;2024-03-08T05:40:24;29.00;;;16.65;;
39674;SDS011;27790;50.840;4.386;2024-03-08T05:42:49;29.13;;;17.13;;
39674;SDS011;27790;50.840;4.386;2024-03-08T05:45:15;30.73;;;17.25;;
39674;SDS011;27790;50.840;4.386;2024-03-08T05:47:40;33.35;;;17.77;;
39674;SDS011;27790;50.840;4.386;2024-03-08T05:50:07;32.83;;;18.98;;
39674;SDS011;27790;50.840;4.386;2024-03-08T05:52:35;36.10;;;19.17;;
39674;SDS011;27790;50.840;4.386;2024-03-08T05:55:03;35.63;;;19.67;;
39674;SDS011;27790;50.840;4.386;2024-03-08T05:57:32;40.92;;;18.75;;
39674;SDS011;27790;50.840;4.386;2024-03-08T05:59:57;31.30;;;17.88;;
39674;SDS011;27790;50.840;4.386;2024-03-08T06:02:23;33.85;;;18.40;;
39674;SDS011;27790;50.840;4.386;2024-03-08T06:04:48;30.67;;;17.80;;
39674;SDS011;27790;50.840;4.386;2024-03-08T06:07:14;31.08;;;16.98;;
39674;SDS011;27790;50.840;4.386;2024-03-08T06:09:41;31.48;;;17.30;;
39674;SDS011;27790;50.840;4.386;2024-03-08T06:12:10;30.83;;;16.75;;
39674;SDS011;27790;50.840;4.386;2024-03-08T06:14:36;34.20;;;18.17;;
39674;SDS011;27790;50.840;4.386;2024-03-08T06:17:02;27.83;;;16.88;;
39674;SDS011;27790;50.840;4.386;2024-03-08T06:19:31;34.65;;;18.58;;
39674;SDS011;27790;50.840;4.386;2024-03-08T06:21:56;37.10;;;19.30;;
39674;SDS011;27790;50.840;4.386;2024-03-08T06:24:22;32.15;;;17.48;;
39674;SDS011;27790;50.840;4.386;2024-03-08T06:26:47;32.53;;;18.23;;
39674;SDS011;27790;50.840;4.386;2024-03-08T06:29:13;35.78;;;17.85;;
39674;SDS011;27790;50.840;4.386;2024-03-08T06:31:40;35.60;;;18.27;;
39674;SDS011;27790;50.840;4.386;2024-03-08T06:34:06;30.50;;;18.40;;
39674;SDS011;27790;50.840;4.386;2024-03-08T06:36:33;31.63;;;18.23;;
39674;SDS011;27790;50.840;4.386;2024-03-08T06:38:59;30.02;;;15.85;;
39674;SDS011;27790;50.840;4.386;2024-03-08T06:41:24;36.00;;;17.65;;
39674;SDS011;27790;50.840;4.386;2024-03-08T06:43:50;36.85;;;19.73;;
39674;SDS011;27790;50.840;4.386;2024-03-08T06:46:17;29.42;;;17.35;;
39674;SDS011;27790;50.840;4.386;2024-03-08T06:48:43;34.05;;;17.73;;
39674;SDS011;27790;50.840;4.386;2024-03-08T06:51:10;36.10;;;17.92;;
39674;SDS011;27790;50.840;4.386;2024-03-08T06:53:36;31.48;;;17.15;;
39674;SDS011;27790;50.840;4.386;2024-03-08T06:56:02;33.95;;;18.05;;
39674;SDS011;27790;50.840;4.386;2024-03-08T06:58:28;29.92;;;17.58;;
39674;SDS011;27790;50.840;4.386;2024-03-08T07:00:54;33.80;;;17.75;;
39674;SDS011;27790;50.840;4.386;2024-03-08T07:03:23;36.25;;;17.85;;
39674;SDS011;27790;50.840;4.386;2024-03-08T07:05:49;33.50;;;18.33;;
39674;SDS011;27790;50.840;4.386;2024-03-08T07:08:14;43.45;;;17.92;;
39674;SDS011;27790;50.840;4.386;2024-03-08T07:10:41;30.85;;;16.75;;
39674;SDS011;27790;50.840;4.386;2024-03-08T07:13:07;32.17;;;17.45;;
39674;SDS011;27790;50.840;4.386;2024-03-08T07:15:33;31.02;;;16.13;;
39674;SDS011;27790;50.840;4.386;2024-03-08T07:18:00;29.55;;;16.67;;
39674;SDS011;27790;50.840;4.386;2024-03-08T07:20:26;34.20;;;18.55;;
39674;SDS011;27790;50.840;4.386;2024-03-08T07:22:51;31.58;;;17.27;;
39674;SDS011;27790;50.840;4.386;2024-03-08T07:25:17;31.85;;;17.30;;
39674;SDS011;27790;50.840;4.386;2024-03-08T07:27:49;30.42;;;17.50;;
39674;SDS011;27790;50.840;4.386;2024-03-08T07:30:22;32.55;;;16.92;;
39674;SDS011;27790;50.840;4.386;2024-03-08T07:33:07;29.05;;;15.93;;
39674;SDS011;27790;50.840;4.386;2024-03-08T07:35:36;34.75;;;18.42;;
39674;SDS011;27790;50.840;4.386;2024-03-08T07:38:06;28.77;;;17.05;;
39674;SDS011;27790;50.840;4.386;2024-03-08T07:40:36;28.70;;;15.02;;
39674;SDS011;27790;50.840;4.386;2024-03-08T07:43:05;29.23;;;17.60;;
39674;SDS011;27790;50.840;4.386;2024-03-08T07:45:31;30.92;;;16.27;;
39674;SDS011;27790;50.840;4.386;2024-03-08T07:47:57;31.15;;;15.90;;
39674;SDS011;27790;50.840;4.386;2024-03-08T07:50:23;29.52;;;17.60;;
39674;SDS011;27790;50.840;4.386;2024-03-08T07:52:49;29.50;;;17.75;;
39674;SDS011;27790;50.840;4.386;2024-03-08T07:55:14;26.88;;;16.42;;
39674;SDS011;27790;50.840;4.386;2024-03-08T07:57:40;27.38;;;16.40;;
39674;SDS011;27790;50.840;4.386;2024-03-08T08:00:07;27.40;;;16.52;;
39674;SDS011;27790;50.840;4.386;2024-03-08T08:02:34;31.25;;;16.42;;
39674;SDS011;27790;50.840;4.386;2024-03-08T08:05:00;28.55;;;15.73;;
39674;SDS011;27790;50.840;4.386;2024-03-08T08:07:26;26.95;;;16.70;;
39674;SDS011;27790;50.840;4.386;2024-03-08T08:09:52;25.30;;;16.05;;
39674;SDS011;27790;50.840;4.386;2024-03-08T08:12:18;27.55;;;16.88;;
39674;SDS011;27790;50.840;4.386;2024-03-08T08:14:44;28.33;;;17.38;;
39674;SDS011;27790;50.840;4.386;2024-03-08T08:17:09;27.35;;;17.27;;
39674;SDS011;27790;50.840;4.386;2024-03-08T08:19:37;24.65;;;16.08;;
39674;SDS011;27790;50.840;4.386;2024-03-08T08:22:03;25.38;;;15.55;;
39674;SDS011;27790;50.840;4.386;2024-03-08T08:24:29;26.50;;;15.48;;
39674;SDS011;27790;50.840;4.386;2024-03-08T08:26:54;28.20;;;16.40;;
39674;SDS011;27790;50.840;4.386;2024-03-08T08:29:20;25.75;;;16.10;;
39674;SDS011;27790;50.840;4.386;2024-03-08T08:31:47;27.05;;;15.20;;
39674;SDS011;27790;50.840;4.386;2024-03-08T08:34:12;29.10;;;17.25;;
39674;SDS011;27790;50.840;4.386;2024-03-08T08:36:38;27.98;;;15.25;;
39674;SDS011;27790;50.840;4.386;2024-03-08T08:39:05;26.73;;;14.98;;
39674;SDS011;27790;50.840;4.386;2024-03-08T08:41:37;26.88;;;14.95;;
39674;SDS011;27790;50.840;4.386;2024-03-08T08:44:03;23.42;;;15.02;;
39674;SDS011;27790;50.840;4.386;2024-03-08T08:46:28;25.67;;;15.32;;
39674;SDS011;27790;50.840;4.386;2024-03-08T08:48:54;23.10;;;14.85;;
39674;SDS011;27790;50.840;4.386;2024-03-08T08:51:20;25.73;;;15.63;;
39674;SDS011;27790;50.840;4.386;2024-03-08T08:53:45;22.85;;;13.77;;
39674;SDS011;27790;50.840;4.386;2024-03-08T08:56:13;24.90;;;14.35;;
39674;SDS011;27790;50.840;4.386;2024-03-08T08:58:39;21.23;;;14.57;;
39674;SDS011;27790;50.840;4.386;2024-03-08T09:01:07;26.25;;;15.25;;
39674;SDS011;27790;50.840;4.386;2024-03-08T09:03:36;25.05;;;14.43;;
39674;SDS011;27790;50.840;4.386;2024-03-08T09:06:03;22.27;;;14.20;;
39674;SDS011;27790;50.840;4.386;2024-03-08T09:08:29;23.08;;;15.00;;
39674;SDS011;27790;50.840;4.386;2024-03-08T09:10:55;23.58;;;13.90;;
39674;SDS011;27790;50.840;4.386;2024-03-08T09:13:21;23.30;;;14.50;;
39674;SDS011;27790;50.840;4.386;2024-03-08T09:15:46;22.65;;;14.45;;
39674;SDS011;27790;50.840;4.386;2024-03-08T09:18:12;24.83;;;15.13;;
39674;SDS011;27790;50.840;4.386;2024-03-08T09:20:38;22.35;;;13.63;;
39674;SDS011;27790;50.840;4.386;2024-03-08T09:23:06;23.98;;;14.90;;
39674;SDS011;27790;50.840;4.386;2024-03-08T09:25:31;24.00;;;14.43;;
39674;SDS011;27790;50.840;4.386;2024-03-08T09:27:57;24.67;;;14.35;;
39674;SDS011;27790;50.840;4.386;2024-03-08T09:30:23;26.85;;;14.52;;
39674;SDS011;27790;50.840;4.386;2024-03-08T09:32:49;26.23;;;13.88;;
39674;SDS011;27790;50.840;4.386;2024-03-08T09:35:16;29.80;;;14.60;;
39674;SDS011;27790;50.840;4.386;2024-03-08T09:37:41;23.88;;;13.35;;
39674;SDS011;27790;50.840;4.386;2024-03-08T09:40:07;23.63;;;12.68;;
39674;SDS011;27790;50.840;4.386;2024-03-08T09:42:40;27.88;;;14.15;;
39674;SDS011;27790;50.840;4.386;2024-03-08T09:45:10;27.20;;;13.88;;
39674;SDS011;27790;50.840;4.386;2024-03-08T09:47:37;26.05;;;12.90;;
39674;SDS011;27790;50.840;4.386;2024-03-08T09:50:06;24.55;;;13.95;;
39674;SDS011;27790;50.840;4.386;2024-03-08T09:52:34;28.60;;;14.35;;
39674;SDS011;27790;50.840;4.386;2024-03-08T09:55:05;25.77;;;14.35;;
39674;SDS011;27790;50.840;4.386;2024-03-08T09:57:32;21.92;;;13.27;;
39674;SDS011;27790;50.840;4.386;2024-03-08T09:59:58;25.25;;;14.20;;
39674;SDS011;27790;50.840;4.386;2024-03-08T10:02:24;26.38;;;12.52;;
39674;SDS011;27790;50.840;4.386;2024-03-08T10:04:51;23.42;;;13.02;;
39674;SDS011;27790;50.840;4.386;2024-03-08T10:07:18;26.30;;;13.57;;
39674;SDS011;27790;50.840;4.386;2024-03-08T10:09:44;25.27;;;13.77;;
39674;SDS011;27790;50.840;4.386;2024-03-08T10:12:15;23.67;;;12.70;;
39674;SDS011;27790;50.840;4.386;2024-03-08T10:14:44;21.88;;;12.73;;
39674;SDS011;27790;50.840;4.386;2024-03-08T10:17:11;19.75;;;12.57;;
39674;SDS011;27790;50.840;4.386;2024-03-08T10:19:37;21.25;;;12.15;;
39674;SDS011;27790;50.840;4.386;2024-03-08T10:22:03;21.67;;;13.48;;
39674;SDS011;27790;50.840;4.386;2024-03-08T10:24:30;24.27;;;14.35;;
39674;SDS011;27790;50.840;4.386;2024-03-08T10:26:58;23.05;;;12.57;;
39674;SDS011;27790;50.840;4.386;2024-03-08T10:29:25;23.92;;;13.68;;
39674;SDS011;27790;50.840;4.386;2024-03-08T10:31:51;24.90;;;14.38;;
39674;SDS011;27790;50.840;4.386;2024-03-08T10:34:16;22.83;;;12.77;;
39674;SDS011;27790;50.840;4.386;2024-03-08T10:36:42;22.05;;;13.23;;
39674;SDS011;27790;50.840;4.386;2024-03-08T10:39:32;22.20;;;12.60;;
39674;SDS011;27790;50.840;4.386;2024-03-08T10:41:59;23.50;;;12.60;;
39674;SDS011;27790;50.840;4.386;2024-03-08T10:47:07;20.88;;;13.20;;
39674;SDS011;27790;50.840;4.386;2024-03-08T10:49:50;22.02;;;13.00;;
39674;SDS011;27790;50.840;4.386;2024-03-08T10:52:19;19.60;;;12.27;;
39674;SDS011;27790;50.840;4.386;2024-03-08T10:54:45;20.48;;;12.40;;
39674;SDS011;27790;50.840;4.386;2024-03-08T10:57:13;22.92;;;13.13;;
39674;SDS011;27790;50.840;4.386;2024-03-08T10:59:42;26.77;;;13.32;;
39674;SDS011;27790;50.840;4.386;2024-03-08T11:02:09;21.55;;;13.00;;
39674;SDS011;27790;50.840;4.386;2024-03-08T11:04:37;21.90;;;12.60;;
39674;SDS011;27790;50.840;4.386;2024-03-08T11:07:03;22.35;;;12.98;;
39674;SDS011;27790;50.840;4.386;2024-03-08T11:15:00;20.73;;;13.20;;
39674;SDS011;27790;50.840;4.386;2024-03-08T11:20:25;21.08;;;12.40;;
39674;SDS011;27790;50.840;4.386;2024-03-08T11:22:55;27.95;;;13.98;;
39674;SDS011;27790;50.840;4.386;2024-03-08T11:28:08;23.13;;;13.73;;
39674;SDS011;27790;50.840;4.386;2024-03-08T11:33:24;22.52;;;13.55;;
39674;SDS011;27790;50.840;4.386;2024-03-08T11:35:52;20.35;;;12.00;;
39674;SDS011;27790;50.840;4.386;2024-03-08T11:38:22;22.63;;;13.43;;
39674;SDS011;27790;50.840;4.386;2024-03-08T11:40:48;20.50;;;11.32;;
39674;SDS011;27790;50.840;4.386;2024-03-08T11:43:15;21.25;;;11.52;;
39674;SDS011;27790;50.840;4.386;2024-03-08T11:45:41;21.73;;;12.85;;
39674;SDS011;27790;50.840;4.386;2024-03-08T11:48:07;19.50;;;12.25;;
39674;SDS011;27790;50.840;4.386;2024-03-08T11:50:33;19.90;;;12.20;;
39674;SDS011;27790;50.840;4.386;2024-03-08T11:53:05;19.98;;;12.73;;
39674;SDS011;27790;50.840;4.386;2024-03-08T11:55:33;19.67;;;12.60;;
39674;SDS011;27790;50.840;4.386;2024-03-08T11:58:01;20.33;;;12.95;;
39674;SDS011;27790;50.840;4.386;2024-03-08T12:00:28;26.88;;;13.20;;
39674;SDS011;27790;50.840;4.386;2024-03-08T12:03:06;19.20;;;11.40;;
39674;SDS011;27790;50.840;4.386;2024-03-08T12:05:34;24.23;;;13.15;;
39674;SDS011;27790;50.840;4.386;2024-03-08T12:08:03;19.20;;;12.02;;
39674;SDS011;27790;50.840;4.386;2024-03-08T12:10:32;19.25;;;11.15;;
39674;SDS011;27790;50.840;4.386;2024-03-08T12:13:00;19.98;;;12.75;;
39674;SDS011;27790;50.840;4.386;2024-03-08T12:15:25;22.15;;;12.45;;
39674;SDS011;27790;50.840;4.386;2024-03-08T12:17:53;21.05;;;12.15;;
39674;SDS011;27790;50.840;4.386;2024-03-08T12:22:56;25.20;;;14.00;;
39674;SDS011;27790;50.840;4.386;2024-03-08T12:25:25;22.27;;;12.85;;
39674;SDS011;27790;50.840;4.386;2024-03-08T12:28:19;28.38;;;12.75;;
39674;SDS011;27790;50.840;4.386;2024-03-08T12:30:47;17.77;;;11.90;;
39674;SDS011;27790;50.840;4.386;2024-03-08T12:33:19;23.85;;;13.13;;
39674;SDS011;27790;50.840;4.386;2024-03-08T12:35:51;21.52;;;12.65;;
39674;SDS011;27790;50.840;4.386;2024-03-08T12:38:18;21.65;;;12.43;;
39674;SDS011;27790;50.840;4.386;2024-03-08T12:40:49;19.25;;;11.57;;
39674;SDS011;27790;50.840;4.386;2024-03-08T12:43:16;20.77;;;11.70;;
39674;SDS011;27790;50.840;4.386;2024-03-08T12:45:42;16.65;;;11.65;;
39674;SDS011;27790;50.840;4.386;2024-03-08T12:48:14;19.35;;;12.85;;
39674;SDS011;27790;50.840;4.386;2024-03-08T12:50:40;21.75;;;12.23;;
39674;SDS011;27790;50.840;4.386;2024-03-08T12:53:08;19.60;;;12.38;;
39674;SDS011;27790;50.840;4.386;2024-03-08T12:55:34;19.63;;;12.57;;
39674;SDS011;27790;50.840;4.386;2024-03-08T12:58:00;20.83;;;12.63;;
39674;SDS011;27790;50.840;4.386;2024-03-08T13:00:25;17.33;;;11.90;;
39674;SDS011;27790;50.840;4.386;2024-03-08T13:02:53;18.00;;;12.48;;
39674;SDS011;27790;50.840;4.386;2024-03-08T13:05:19;16.80;;;10.98;;
39674;SDS011;27790;50.840;4.386;2024-03-08T13:07:45;22.40;;;12.30;;
39674;SDS011;27790;50.840;4.386;2024-03-08T13:10:14;20.52;;;11.57;;
39674;SDS011;27790;50.840;4.386;2024-03-08T13:12:44;18.73;;;12.23;;
39674;SDS011;27790;50.840;4.386;2024-03-08T13:15:10;19.65;;;11.98;;
39674;SDS011;27790;50.840;4.386;2024-03-08T13:17:40;19.00;;;11.65;;
39674;SDS011;27790;50.840;4.386;2024-03-08T13:20:07;21.52;;;12.48;;
39674;SDS011;27790;50.840;4.386;2024-03-08T13:22:34;18.45;;;12.35;;
39674;SDS011;27790;50.840;4.386;2024-03-08T13:25:00;18.60;;;11.30;;
39674;SDS011;27790;50.840;4.386;2024-03-08T13:27:27;19.25;;;12.93;;
39674;SDS011;27790;50.840;4.386;2024-03-08T13:29:53;20.02;;;12.40;;
39674;SDS011;27790;50.840;4.386;2024-03-08T13:32:19;24.55;;;11.85;;
39674;SDS011;27790;50.840;4.386;2024-03-08T13:34:45;19.63;;;11.88;;
39674;SDS011;27790;50.840;4.386;2024-03-08T13:37:16;19.63;;;10.55;;
39674;SDS011;27790;50.840;4.386;2024-03-08T13:39:42;21.88;;;12.15;;
39674;SDS011;27790;50.840;4.386;2024-03-08T13:42:11;19.20;;;11.27;;
39674;SDS011;27790;50.840;4.386;2024-03-08T13:44:48;15.95;;;10.60;;
39674;SDS011;27790;50.840;4.386;2024-03-08T13:47:17;18.17;;;12.52;;
39674;SDS011;27790;50.840;4.386;2024-03-08T13:49:43;19.88;;;11.52;;
39674;SDS011;27790;50.840;4.386;2024-03-08T13:52:09;17.65;;;10.23;;
39674;SDS011;27790;50.840;4.386;2024-03-08T13:54:35;16.50;;;10.63;;
39674;SDS011;27790;50.840;4.386;2024-03-08T13:57:01;29.38;;;11.95;;
39674;SDS011;27790;50.840;4.386;2024-03-08T13:59:32;18.23;;;10.65;;
39674;SDS011;27790;50.840;4.386;2024-03-08T14:02:02;16.80;;;11.23;;
39674;SDS011;27790;50.840;4.386;2024-03-08T14:04:28;18.25;;;10.38;;
39674;SDS011;27790;50.840;4.386;2024-03-08T14:06:54;17.10;;;10.70;;
39674;SDS011;27790;50.840;4.386;2024-03-08T14:09:25;17.50;;;10.55;;
39674;SDS011;27790;50.840;4.386;2024-03-08T14:11:54;17.92;;;10.88;;
39674;SDS011;27790;50.840;4.386;2024-03-08T14:14:21;18.48;;;10.70;;
39674;SDS011;27790;50.840;4.386;2024-03-08T14:16:48;20.10;;;10.32;;
39674;SDS011;27790;50.840;4.386;2024-03-08T14:19:17;23.05;;;11.32;;
39674;SDS011;27790;50.840;4.386;2024-03-08T14:21:43;18.33;;;11.23;;
39674;SDS011;27790;50.840;4.386;2024-03-08T14:24:09;17.27;;;10.85;;
39674;SDS011;27790;50.840;4.386;2024-03-08T14:26:35;18.73;;;11.55;;
39674;SDS011;27790;50.840;4.386;2024-03-08T14:29:03;19.90;;;11.65;;
39674;SDS011;27790;50.840;4.386;2024-03-08T14:31:30;16.05;;;10.45;;
39674;SDS011;27790;50.840;4.386;2024-03-08T14:33:56;16.80;;;10.60;;
39674;SDS011;27790;50.840;4.386;2024-03-08T14:36:23;20.48;;;11.05;;
39674;SDS011;27790;50.840;4.386;2024-03-08T14:38:50;22.30;;;12.30;;